createdAt,value
2022-09-12T00:01:30.369Z,76.94
2022-09-12T00:04:01.931Z,76.91
2022-09-12T00:06:32.248Z,76.62
2022-09-12T00:09:04.998Z,76.78
2022-09-12T00:11:33.487Z,76.58
2022-09-12T00:14:02.866Z,76.65
2022-09-12T00:16:33.860Z,76.54
2022-09-12T00:19:02.540Z,76.68
2022-09-12T00:21:31.055Z,76.78
2022-09-12T00:24:00.715Z,76.72
2022-09-12T00:26:28.986Z,76.22
2022-09-12T00:28:57.214Z,76.00
2022-09-12T00:31:27.743Z,75.96
2022-09-12T00:33:58.074Z,75.88
2022-09-12T00:36:28.680Z,75.83
2022-09-12T00:38:57.454Z,75.99
2022-09-12T00:41:31.097Z,76.04
2022-09-12T00:44:01.994Z,75.93
2022-09-12T00:46:40.055Z,75.91
2022-09-12T00:49:15.240Z,75.71
2022-09-12T00:51:48.436Z,75.61
2022-09-12T00:54:22.250Z,75.73
2022-09-12T00:56:58.310Z,76.11
2022-09-12T00:59:32.383Z,76.08
2022-09-12T01:02:00.762Z,76.33
2022-09-12T01:04:30.258Z,76.88
2022-09-12T01:07:00.043Z,77.04
2022-09-12T01:09:28.292Z,77.05
2022-09-12T01:11:59.406Z,77.05
2022-09-12T01:14:27.781Z,76.85
2022-09-12T01:16:56.086Z,76.66
2022-09-12T01:20:40.997Z,77.20
2022-09-12T01:23:39.758Z,77.27
2022-09-12T01:26:41.577Z,77.56
2022-09-12T01:29:41.570Z,77.55
2022-09-12T01:32:20.343Z,78.43
2022-09-12T01:34:53.910Z,78.89
2022-09-12T01:37:34.190Z,79.52
2022-09-12T01:40:14.184Z,79.95
2022-09-12T01:42:48.302Z,79.81
2022-09-12T01:45:22.319Z,79.98
2022-09-12T01:47:58.843Z,80.17
2022-09-12T01:50:33.181Z,80.41
2022-09-12T01:53:06.259Z,80.24
2022-09-12T01:55:39.547Z,80.27
2022-09-12T01:58:13.235Z,79.93
2022-09-12T02:00:48.565Z,79.52
2022-09-12T02:03:22.813Z,79.46
2022-09-12T02:05:57.134Z,79.82
2022-09-12T02:08:32.362Z,80.28
2022-09-12T02:11:08.147Z,80.58
2022-09-12T02:13:43.335Z,80.67
2022-09-12T02:16:18.875Z,80.58
2022-09-12T02:18:55.026Z,81.20
2022-09-12T02:21:25.616Z,81.64
2022-09-12T02:23:59.376Z,81.23
2022-09-12T02:26:36.345Z,80.92
2022-09-12T02:29:05.791Z,80.87
2022-09-12T02:31:41.962Z,80.67
2022-09-12T02:34:28.656Z,80.75
2022-09-12T02:37:08.043Z,81.50
2022-09-12T02:39:37.032Z,81.97
2022-09-12T02:42:06.041Z,82.57
2022-09-12T02:44:36.009Z,82.77
2022-09-12T02:47:10.881Z,82.67
2022-09-12T02:49:40.836Z,82.56
2022-09-12T02:52:09.116Z,82.71
2022-09-12T02:54:38.225Z,82.46
2022-09-12T02:57:20.634Z,83.11
2022-09-12T02:59:53.648Z,83.30
2022-09-12T03:02:33.478Z,83.47
2022-09-12T03:05:20.555Z,83.60
2022-09-12T03:08:24.899Z,83.54
2022-09-12T03:11:13.965Z,82.99
2022-09-12T03:13:55.531Z,82.96
2022-09-12T03:16:34.626Z,83.05
2022-09-12T03:19:11.071Z,82.75
2022-09-12T03:21:54.454Z,82.76
2022-09-12T03:24:32.065Z,82.30
2022-09-12T03:27:09.573Z,82.40
2022-09-12T03:29:40.209Z,82.49
2022-09-12T03:32:08.454Z,82.73
2022-09-12T03:34:36.695Z,82.81
2022-09-12T03:37:06.955Z,83.08
2022-09-12T03:39:35.351Z,82.31
2022-09-12T03:42:03.592Z,82.01
2022-09-12T03:44:31.850Z,81.87
2022-09-12T03:47:00.187Z,81.66
2022-09-12T03:49:28.418Z,81.34
2022-09-12T03:51:56.600Z,81.13
2022-09-12T03:54:26.386Z,81.21
2022-09-12T03:56:54.619Z,81.58
2022-09-12T03:59:22.805Z,81.82
2022-09-12T04:01:51.144Z,81.59
2022-09-12T04:04:19.380Z,81.03
2022-09-12T04:06:47.615Z,80.66
2022-09-12T04:09:15.876Z,80.43
2022-09-12T04:11:45.518Z,80.78
2022-09-12T04:14:13.779Z,80.50
2022-09-12T04:16:41.998Z,80.66
2022-09-12T04:19:12.503Z,80.43
2022-09-12T04:21:41.275Z,80.77
2022-09-12T04:24:09.522Z,81.22
2022-09-12T04:26:37.976Z,80.75
2022-09-12T04:29:07.592Z,79.92
2022-09-12T04:31:35.777Z,79.68
2022-09-12T04:34:04.720Z,79.23
2022-09-12T04:36:33.480Z,78.97
2022-09-12T04:39:02.800Z,78.95
2022-09-12T04:41:33.470Z,78.81
2022-09-12T04:44:03.556Z,78.03
2022-09-12T04:46:36.166Z,77.83
2022-09-12T04:49:04.516Z,77.86
2022-09-12T04:51:35.086Z,78.27
2022-09-12T04:54:06.933Z,78.45
2022-09-12T04:56:39.586Z,78.17
2022-09-12T04:59:08.682Z,78.07
2022-09-12T05:01:38.432Z,78.05
2022-09-12T05:04:07.176Z,78.15
2022-09-12T05:06:38.230Z,78.36
2022-09-12T05:09:09.174Z,78.44
2022-09-12T05:12:03.893Z,78.54
2022-09-12T05:14:28.922Z,79.52
2022-09-12T05:17:00.794Z,80.19
2022-09-12T05:19:30.082Z,81.59
2022-09-12T05:21:58.965Z,83.28
2022-09-12T05:24:27.378Z,83.54
2022-09-12T05:26:55.802Z,84.73
2022-09-12T05:29:25.165Z,85.60
2022-09-12T05:31:53.763Z,86.00
2022-09-12T05:34:23.745Z,86.74
2022-09-12T05:36:51.997Z,87.00
2022-09-12T05:39:20.382Z,87.02
2022-09-12T05:41:48.803Z,87.07
2022-09-12T05:44:17.842Z,86.90
2022-09-12T05:46:50.373Z,86.71
2022-09-12T05:49:18.809Z,86.09
2022-09-12T05:51:48.382Z,86.18
2022-09-12T05:54:20.409Z,85.59
2022-09-12T05:56:49.959Z,85.24
2022-09-12T05:59:20.629Z,85.34
2022-09-12T06:01:49.490Z,85.19
2022-09-12T06:04:18.184Z,85.57
2022-09-12T06:06:48.839Z,85.44
2022-09-12T06:09:17.909Z,85.48
2022-09-12T06:11:47.260Z,85.08
2022-09-12T06:14:18.034Z,84.65
2022-09-12T06:16:47.136Z,85.00
2022-09-12T06:19:18.082Z,85.03
2022-09-12T06:21:49.487Z,85.01
2022-09-12T06:24:18.608Z,84.08
2022-09-12T06:26:47.361Z,82.91
2022-09-12T06:29:16.848Z,82.28
2022-09-12T06:31:46.018Z,81.69
2022-09-12T06:34:17.130Z,81.19
2022-09-12T06:36:49.627Z,80.89
2022-09-12T06:39:20.534Z,80.82
2022-09-12T06:41:49.812Z,80.48
2022-09-12T06:44:21.408Z,80.14
2022-09-12T06:46:50.332Z,79.19
2022-09-12T06:49:18.691Z,79.23
2022-09-12T06:51:46.885Z,78.20
2022-09-12T06:54:18.140Z,77.47
2022-09-12T06:56:46.664Z,76.40
2022-09-12T06:59:15.085Z,75.78
2022-09-12T07:01:43.492Z,75.38
2022-09-12T07:04:12.602Z,74.62
2022-09-12T07:06:44.053Z,73.87
2022-09-12T07:09:17.356Z,72.68
2022-09-12T07:11:47.286Z,72.10
2022-09-12T07:14:16.811Z,72.29
2022-09-12T07:16:45.393Z,71.98
2022-09-12T07:19:13.725Z,72.24
2022-09-12T07:21:42.132Z,72.11
2022-09-12T07:24:11.784Z,70.29
2022-09-12T07:26:42.639Z,69.42
2022-09-12T07:32:06.698Z,68.23
2022-09-12T07:34:35.738Z,67.75
2022-09-12T07:37:04.056Z,67.94
2022-09-12T07:39:32.423Z,68.14
2022-09-12T07:42:02.071Z,65.68
2022-09-12T07:44:30.430Z,65.72
2022-09-12T07:46:58.664Z,65.26
2022-09-12T07:49:26.897Z,63.60
2022-09-12T07:51:55.143Z,63.16
2022-09-12T07:54:23.873Z,62.27
2022-09-12T07:56:52.107Z,61.73
2022-09-12T07:59:48.348Z,61.67
2022-09-12T08:02:17.177Z,61.00
2022-09-12T08:04:48.306Z,59.84
2022-09-12T08:07:18.364Z,60.20
2022-09-12T08:09:47.315Z,60.22
2022-09-12T08:12:16.503Z,59.03
2022-09-12T08:14:46.139Z,59.67
2022-09-12T08:17:14.437Z,59.27
2022-09-12T08:19:42.731Z,59.47
2022-09-12T08:22:11.241Z,58.36
2022-09-12T08:24:40.527Z,58.47
2022-09-12T08:27:09.205Z,58.81
2022-09-12T08:29:37.425Z,56.97
2022-09-12T08:32:07.137Z,56.76
2022-09-12T08:34:35.451Z,56.91
2022-09-12T08:37:04.118Z,56.79
2022-09-12T08:39:33.051Z,55.59
2022-09-12T08:42:04.044Z,55.68
2022-09-12T08:45:06.997Z,55.72
2022-09-12T08:47:40.267Z,55.06
2022-09-12T08:50:17.757Z,55.18
2022-09-12T08:52:55.970Z,54.89
2022-09-12T08:55:37.892Z,55.11
2022-09-12T08:58:16.117Z,54.18
2022-09-12T09:00:54.743Z,53.99
2022-09-12T09:03:50.966Z,54.24
2022-09-12T09:06:36.211Z,53.01
2022-09-12T09:09:13.591Z,52.81
2022-09-12T09:11:56.993Z,52.06
2022-09-12T09:15:09.850Z,52.88
2022-09-12T09:17:43.081Z,52.03
2022-09-12T09:20:30.522Z,52.87
2022-09-12T09:23:03.466Z,52.14
2022-09-12T09:25:44.969Z,52.29
2022-09-12T09:28:18.547Z,51.58
2022-09-12T09:30:47.592Z,52.14
2022-09-12T09:33:23.651Z,51.43
2022-09-12T09:36:02.449Z,51.66
2022-09-12T09:38:44.131Z,50.41
2022-09-12T09:41:28.060Z,50.85
2022-09-12T09:43:57.349Z,52.23
2022-09-12T09:46:25.969Z,52.59
2022-09-12T09:48:54.931Z,53.49
2022-09-12T09:51:33.497Z,53.23
2022-09-12T09:54:07.123Z,52.32
2022-09-12T09:56:40.047Z,52.25
2022-09-12T09:59:12.829Z,51.01
2022-09-12T10:01:49.108Z,51.20
2022-09-12T10:04:23.454Z,50.31
2022-09-12T10:06:56.228Z,49.63
2022-09-12T10:09:28.126Z,50.96
2022-09-12T10:11:58.688Z,51.59
2022-09-12T10:14:35.016Z,52.25
2022-09-12T10:17:06.832Z,50.58
2022-09-12T10:19:38.153Z,50.73
2022-09-12T10:22:08.711Z,51.15
2022-09-12T10:24:38.900Z,50.80
2022-09-12T10:27:15.985Z,49.99
2022-09-12T10:29:49.409Z,50.77
2022-09-12T10:32:30.618Z,50.14
2022-09-12T10:35:02.766Z,49.09
2022-09-12T10:37:36.079Z,49.06
2022-09-12T10:40:09.298Z,49.85
2022-09-12T10:42:52.561Z,48.29
2022-09-12T10:45:29.048Z,48.87
2022-09-12T10:48:04.160Z,49.10
2022-09-12T10:50:41.691Z,48.35
2022-09-12T10:53:21.815Z,46.98
2022-09-12T10:56:07.739Z,46.74
2022-09-12T10:59:07.841Z,48.08
2022-09-12T11:01:42.122Z,48.05
2022-09-12T11:04:30.941Z,47.86
2022-09-12T11:07:27.052Z,48.32
2022-09-12T11:10:04.877Z,47.99
2022-09-12T11:12:42.157Z,48.37
2022-09-12T11:15:33.184Z,48.02
2022-09-12T11:18:13.439Z,46.73
2022-09-12T11:21:20.663Z,46.46
2022-09-12T11:24:33.147Z,45.96
2022-09-12T11:27:22.922Z,45.69
2022-09-12T11:29:56.106Z,45.38
2022-09-12T11:32:57.122Z,45.81
2022-09-12T11:35:27.536Z,45.63
2022-09-12T11:38:46.867Z,46.18
2022-09-12T11:41:22.730Z,45.30
2022-09-12T11:43:58.230Z,44.81
2022-09-12T11:46:36.254Z,45.06
2022-09-12T11:49:18.278Z,45.26
2022-09-12T11:51:53.607Z,44.99
2022-09-12T11:54:28.561Z,45.13
2022-09-12T11:57:09.913Z,45.44
2022-09-12T11:59:46.805Z,45.28
2022-09-12T12:02:27.739Z,45.43
2022-09-12T12:05:07.090Z,45.77
2022-09-12T12:07:45.650Z,45.73
2022-09-12T12:10:28.858Z,45.61
2022-09-12T12:12:58.643Z,46.45
2022-09-12T12:15:29.173Z,46.52
2022-09-12T12:18:06.392Z,45.61
2022-09-12T12:20:35.618Z,45.24
2022-09-12T12:23:04.571Z,45.32
2022-09-12T12:25:52.811Z,45.40
2022-09-12T12:28:59.365Z,46.63
2022-09-12T12:31:29.172Z,49.50
2022-09-12T12:34:24.027Z,48.38
2022-09-12T12:36:52.279Z,48.18
2022-09-12T12:40:05.043Z,47.45
2022-09-12T12:43:06.141Z,49.33
2022-09-12T12:46:10.870Z,47.16
2022-09-12T12:48:59.922Z,48.06
2022-09-12T12:51:58.492Z,48.48
2022-09-12T12:54:53.628Z,46.67
2022-09-12T12:57:47.472Z,47.52
2022-09-12T13:00:35.293Z,46.24
2022-09-12T13:03:12.111Z,46.85
2022-09-12T13:05:46.006Z,46.87
2022-09-12T13:08:31.576Z,47.36
2022-09-12T13:11:03.011Z,46.18
2022-09-12T13:13:37.634Z,47.31
2022-09-12T13:16:06.411Z,47.12
2022-09-12T13:18:44.571Z,46.87
2022-09-12T13:21:17.858Z,46.92
2022-09-12T13:23:47.765Z,46.71
2022-09-12T13:26:26.276Z,45.50
2022-09-12T13:29:17.879Z,46.24
2022-09-12T13:31:48.496Z,46.10
2022-09-12T13:34:21.976Z,46.14
2022-09-12T13:37:27.628Z,47.06
2022-09-12T13:40:07.437Z,47.91
2022-09-12T13:42:43.568Z,48.84
2022-09-12T13:45:20.677Z,47.62
2022-09-12T13:47:56.606Z,47.55
2022-09-12T13:50:29.333Z,48.34
2022-09-12T13:53:02.453Z,48.10
2022-09-12T13:55:33.993Z,48.59
2022-09-12T13:58:04.821Z,48.79
2022-09-12T14:00:35.426Z,49.28
2022-09-12T14:03:45.247Z,49.16
2022-09-12T14:06:14.676Z,50.62
2022-09-12T14:08:45.087Z,50.50
2022-09-12T14:11:22.347Z,50.63
2022-09-12T14:13:52.650Z,51.10
2022-09-12T14:16:23.422Z,50.30
2022-09-12T14:18:52.579Z,49.06
2022-09-12T14:21:34.978Z,48.46
2022-09-12T14:24:08.592Z,49.26
2022-09-12T14:26:40.240Z,49.38
2022-09-12T14:29:10.105Z,49.05
2022-09-12T14:31:41.276Z,49.51
2022-09-12T14:34:13.605Z,48.05
2022-09-12T14:36:46.361Z,48.39
2022-09-12T14:39:30.118Z,48.52
2022-09-12T14:42:08.477Z,49.38
2022-09-12T14:44:37.715Z,49.34
2022-09-12T14:47:21.174Z,48.65
2022-09-12T14:49:51.647Z,47.80
2022-09-12T14:52:26.344Z,47.97
2022-09-12T14:55:01.958Z,48.44
2022-09-12T14:57:39.329Z,49.80
2022-09-12T15:00:20.968Z,49.76
2022-09-12T15:02:50.545Z,48.46
2022-09-12T15:05:23.941Z,47.99
2022-09-12T15:08:01.223Z,47.48
2022-09-12T15:10:35.428Z,48.16
2022-09-12T15:13:19.412Z,48.12
2022-09-12T15:15:51.140Z,49.23
2022-09-12T15:18:21.105Z,49.44
2022-09-12T15:20:52.818Z,48.73
2022-09-12T15:23:33.130Z,49.05
2022-09-12T15:26:03.477Z,49.51
2022-09-12T15:28:33.535Z,50.14
2022-09-12T15:31:09.463Z,49.54
2022-09-12T15:33:37.733Z,49.13
2022-09-12T15:36:14.017Z,49.72
2022-09-12T15:38:42.403Z,49.96
2022-09-12T15:41:18.111Z,49.51
2022-09-12T15:43:47.078Z,48.79
2022-09-12T15:46:19.058Z,48.85
2022-09-12T15:48:47.760Z,48.99
2022-09-12T15:51:18.675Z,48.71
2022-09-12T15:53:48.471Z,49.25
2022-09-12T15:56:19.779Z,49.69
2022-09-12T15:58:58.365Z,49.63
2022-09-12T16:01:28.358Z,50.96
2022-09-12T16:03:56.995Z,50.30
2022-09-12T16:06:25.315Z,50.28
2022-09-12T16:08:53.573Z,50.27
2022-09-12T16:11:26.087Z,50.88
2022-09-12T16:13:56.651Z,50.60
2022-09-12T16:16:24.817Z,50.49
2022-09-12T16:18:53.348Z,50.72
2022-09-12T16:21:21.570Z,50.94
2022-09-12T16:23:50.382Z,51.61
2022-09-12T16:26:19.361Z,51.63
2022-09-12T16:28:49.179Z,51.41
2022-09-12T16:31:17.732Z,51.31
2022-09-12T16:33:46.052Z,50.59
2022-09-12T16:36:16.862Z,51.06
2022-09-12T16:38:46.855Z,50.97
2022-09-12T16:41:17.198Z,51.70
2022-09-12T16:43:46.049Z,51.54
2022-09-12T16:46:19.000Z,51.11
2022-09-12T16:48:52.507Z,50.79
2022-09-12T16:51:24.894Z,50.32
2022-09-12T16:53:53.664Z,50.43
2022-09-12T16:56:22.309Z,50.46
2022-09-12T16:58:50.986Z,50.18
2022-09-12T17:01:23.364Z,50.12
2022-09-12T17:03:54.846Z,50.07
2022-09-12T17:06:23.402Z,50.14
2022-09-12T17:08:54.072Z,50.24
2022-09-12T17:11:26.427Z,50.53
2022-09-12T17:14:06.227Z,50.28
2022-09-12T17:16:39.155Z,50.12
2022-09-12T17:19:08.792Z,49.97
2022-09-12T17:21:37.140Z,50.29
2022-09-12T17:24:06.073Z,50.31
2022-09-12T17:26:34.538Z,50.08
2022-09-12T17:29:03.128Z,50.44
2022-09-12T17:31:32.069Z,50.30
2022-09-12T17:34:03.143Z,50.64
2022-09-12T17:36:32.533Z,50.90
2022-09-12T17:39:02.250Z,50.53
2022-09-12T17:41:32.834Z,50.88
2022-09-12T17:44:02.617Z,51.53
2022-09-12T17:46:35.023Z,51.36
2022-09-12T17:49:07.659Z,51.41
2022-09-12T17:51:36.445Z,51.04
2022-09-12T17:54:08.252Z,51.31
2022-09-12T17:56:38.026Z,52.52
2022-09-12T17:59:08.303Z,52.79
2022-09-12T18:01:54.464Z,52.53
2022-09-12T18:04:24.242Z,52.37
2022-09-12T18:06:52.814Z,52.62
2022-09-12T18:09:23.361Z,52.94
2022-09-12T18:11:52.036Z,52.95
2022-09-12T18:14:20.726Z,52.88
2022-09-12T18:16:49.604Z,57.11
2022-09-12T18:19:18.740Z,57.76
2022-09-12T18:21:48.329Z,60.10
2022-09-12T18:24:16.827Z,58.76
2022-09-12T18:26:45.123Z,58.38
2022-09-12T18:29:16.781Z,57.57
2022-09-12T18:31:46.728Z,57.09
2022-09-12T18:34:15.858Z,56.67
2022-09-12T18:36:46.402Z,55.89
2022-09-12T18:39:16.226Z,55.12
2022-09-12T18:41:45.077Z,54.51
2022-09-12T18:44:13.896Z,54.86
2022-09-12T18:46:42.290Z,57.20
2022-09-12T18:49:10.746Z,57.98
2022-09-12T18:51:41.937Z,57.82
2022-09-12T18:54:15.577Z,58.14
2022-09-12T18:56:45.604Z,57.21
2022-09-12T18:59:14.949Z,56.24
2022-09-12T19:01:44.304Z,56.53
2022-09-12T19:04:15.050Z,56.87
2022-09-12T19:06:46.002Z,56.50
2022-09-12T19:09:20.579Z,57.62
2022-09-12T19:11:52.607Z,57.52
2022-09-12T19:14:24.874Z,57.19
2022-09-12T19:16:53.788Z,58.17
2022-09-12T19:19:23.257Z,58.12
2022-09-12T19:21:51.644Z,58.93
2022-09-12T19:24:21.860Z,58.76
2022-09-12T19:26:50.933Z,58.21
2022-09-12T19:29:19.525Z,58.08
2022-09-12T19:31:47.891Z,58.73
2022-09-12T19:34:16.562Z,62.71
2022-09-12T19:36:46.602Z,63.71
2022-09-12T19:39:16.143Z,63.60
2022-09-12T19:41:46.371Z,62.86
2022-09-12T19:44:14.941Z,63.13
2022-09-12T19:46:43.467Z,64.50
2022-09-12T19:49:13.253Z,64.51
2022-09-12T19:51:42.005Z,64.31
2022-09-12T19:54:10.574Z,63.28
2022-09-12T19:56:38.845Z,63.12
2022-09-12T19:59:08.670Z,63.60
2022-09-12T20:01:37.771Z,62.32
2022-09-12T20:04:06.871Z,61.82
2022-09-12T20:06:35.801Z,62.04
2022-09-12T20:09:04.570Z,62.47
2022-09-12T20:11:32.960Z,63.22
2022-09-12T20:14:01.338Z,64.36
2022-09-12T20:16:33.566Z,64.94
2022-09-12T20:19:06.087Z,65.18
2022-09-12T20:21:36.272Z,65.11
2022-09-12T20:24:07.113Z,64.38
2022-09-12T20:26:35.834Z,64.36
2022-09-12T20:29:04.887Z,65.32
2022-09-12T20:31:35.256Z,65.01
2022-09-12T20:34:03.940Z,66.84
2022-09-12T20:36:32.238Z,66.74
2022-09-12T20:39:02.526Z,65.71
2022-09-12T20:41:33.327Z,64.95
2022-09-12T20:44:01.637Z,64.83
2022-09-12T20:46:30.413Z,65.08
2022-09-12T20:49:00.562Z,64.27
2022-09-12T20:51:30.336Z,64.04
2022-09-12T20:54:00.035Z,65.39
2022-09-12T20:56:29.743Z,65.00
2022-09-12T20:58:58.820Z,65.86
2022-09-12T21:01:29.189Z,67.08
2022-09-12T21:03:58.866Z,66.64
2022-09-12T21:06:28.773Z,66.89
2022-09-12T21:09:00.539Z,68.10
2022-09-12T21:11:29.903Z,68.38
2022-09-12T21:13:58.904Z,66.29
2022-09-12T21:16:27.479Z,64.76
2022-09-12T21:18:57.509Z,64.01
2022-09-12T21:21:27.895Z,63.49
2022-09-12T21:23:59.887Z,63.36
2022-09-12T21:26:28.382Z,64.25
2022-09-12T21:28:56.618Z,65.44
2022-09-12T21:31:25.869Z,66.11
2022-09-12T21:33:54.303Z,65.48
2022-09-12T21:36:22.533Z,64.31
2022-09-12T21:38:52.046Z,65.22
2022-09-12T21:41:20.295Z,65.59
2022-09-12T21:43:48.578Z,66.67
2022-09-12T21:46:17.013Z,66.78
2022-09-12T21:48:45.310Z,67.39
2022-09-12T21:51:13.538Z,68.70
2022-09-12T21:53:42.492Z,70.12
2022-09-12T21:56:12.170Z,70.79
2022-09-12T21:58:40.434Z,71.11
2022-09-12T22:01:09.690Z,71.63
2022-09-12T22:03:37.960Z,70.60
2022-09-12T22:06:07.997Z,71.21
2022-09-12T22:08:38.836Z,71.83
2022-09-12T22:11:10.917Z,72.21
2022-09-12T22:13:43.344Z,72.34
2022-09-12T22:16:12.665Z,72.67
2022-09-12T22:18:41.234Z,71.72
2022-09-12T22:21:13.334Z,70.98
2022-09-12T22:23:59.281Z,72.02
2022-09-12T22:26:29.222Z,71.46
2022-09-12T22:28:57.604Z,72.46
2022-09-12T22:31:26.929Z,72.63
2022-09-12T22:33:57.035Z,71.96
2022-09-12T22:36:30.455Z,72.65
2022-09-12T22:38:59.697Z,73.47
2022-09-12T22:41:29.446Z,73.76
2022-09-12T22:43:58.604Z,73.94
2022-09-12T22:46:27.490Z,73.93
2022-09-12T22:48:55.961Z,73.45
2022-09-12T22:51:24.633Z,73.03
2022-09-12T22:53:53.768Z,72.83
2022-09-12T22:56:22.500Z,72.69
2022-09-12T22:58:52.392Z,72.51
2022-09-12T23:01:20.906Z,72.24
2022-09-12T23:03:49.209Z,71.74
2022-09-12T23:06:18.964Z,73.28
2022-09-12T23:08:47.269Z,73.12
2022-09-12T23:11:19.032Z,73.90
2022-09-12T23:13:49.632Z,74.38
2022-09-12T23:16:20.580Z,75.34
2022-09-12T23:18:49.445Z,74.73
2022-09-12T23:21:21.175Z,74.20
2022-09-12T23:23:49.868Z,73.47
2022-09-12T23:26:20.248Z,73.24
2022-09-12T23:28:50.674Z,74.12
2022-09-12T23:31:20.788Z,74.56
2022-09-12T23:33:49.503Z,74.64
2022-09-12T23:36:18.001Z,74.74
2022-09-12T23:38:48.072Z,75.40
2022-09-12T23:41:17.967Z,75.18
2022-09-12T23:43:47.041Z,74.87
2022-09-12T23:46:17.221Z,74.38
2022-09-12T23:48:46.853Z,74.14
2022-09-12T23:51:15.551Z,73.89
2022-09-12T23:53:44.079Z,74.79
2022-09-12T23:56:12.538Z,75.11
2022-09-12T23:58:40.757Z,75.54
